Airfield :
LOGIN :

Register | Disclaimer

   EN    FR    IT 

 










Legend :    VFR   Marginal VFR   IFR   Intensive IFR   Very Intensive IFR
Visi :
Ceiling :
>= 8 km
>= 3000ft
5 to 8 km
1000 to 3000 ft
1500m to 5 km
500 to 1000 ft
800 to 1500m
200 to 500 ft
< 800m
< 200 ft
Symbols :   Thunderstorms  Fog  Heavy snow  Heavy precipitations  Wind > 20 kt
SIGMETs :     Misc.  Thunderstorms  Icing  Turbulence  Mountain Waves  Volcanic Ashes







- Airport Elevation : 935 ft


EBFS - Florennes

CURRENT METAR :
  • 121625Z AUTO 08004KT 7000 OVC220/// M00/M01 Q1022 WHT

EXPIRED METARs :
  • 121622Z AUTO 08004KT 7000 BKN220/// 00/M01 Q1022 WHT
  • 121555Z AUTO 07005KT 8000 FEW120/// BKN220/// 00/M01 Q1022 BLU
  • 121552Z AUTO 07005KT 7000 FEW007/// BKN220/// 00/M01 Q1022 WHT
  • 121525Z AUTO 08007KT 8000 SCT005/// BKN007/// 01/M00 Q1022 YLO
  • 121455Z 07008KT 3000 SCT003 BKN004 01/00 Q1022 YLO FCST CANCEL
  • 121454Z 07007KT 3000 SCT003 BKN004 01/00 Q1022 YLO FCST CANCEL
  • 121436Z 06007KT 3000 BKN003 01/00 Q1022 YLO YLO TEMPO AMB
  • 121403Z 07006KT 1500 BKN002 01/00 Q1022 AMB AMB TEMPO RED
  • 121348Z 08005KT 0600 BKN001 01/00 Q1023 RED RED

TAF AMD TAF EBFS
Valid from the 12 at 10:00 until the 12 at 19:00 UTC


121200Z 1210/1219 07007KT 8000 FEW015
BECMG 1214/1215 0500 FG BKN001
BECMG 1216/1218 3000 BR BKN004
BECMG 1218/1220 6000 SCT008
No reported NOTAMs for that airfield.



MET'MAP, your aeronautical weather chart ! - Copyright ORBIFLY December 2007 - Disclaimer

ORBIFLY MET'MAP TEAM :

Programming & Development : Alexandra Zaïnal
Concept & Development : Baudouin d'Aumeries
Co-Development & Prog : Marc-Olivier Méhu
Technical & hardware support : Manuel Goepfert

Contact : metmap@orbifly.com




SOURCES & CREDITS :

   NOAA